EDHL/LBC METAR and TAF weather

Enter ICAO airport designator
Station Type Date Time Source
EDHL METAR 2022/07/03 14:20 UTC NOAA

EDHL 031420Z 31006KT 260V350 CAVOK 27/14 Q1015


Station Type Date Time Source
EDHL Decoded METAR 2022/07/03 14:20 UTC NOAA

Luebeck-Blankensee, Germany (EDHL) 53-49N 010-42E 15M
Jul 03, 2022 - 10:20 AM EDT / 2022.07.03 1420 UTC
Wind: from the NW (310 degrees) at 7 MPH (6 KT) (direction variable):0
Visibility: greater than 7 mile(s):0
Temperature: 80 F (27 C)
Dew Point: 57 F (14 C)
Relative Humidity: 44%
Pressure (altimeter): 29.97 in. Hg (1015 hPa)
ob: EDHL 031420Z 31006KT 260V350 CAVOK 27/14 Q1015
cycle: 14

Station Type Date Time Source
EDHL TAF 2010/02/22 14:20 UTC NOAA

METAR EDHL 221420Z 15004KT 110V180 9999 FEW039 SCT120 05/02 Q0990
RMK X

Example: see airport list